createdAt,value
2019-01-17T00:00:36.446Z,1.90
2019-01-17T00:03:56.175Z,1.90
2019-01-17T00:07:12.591Z,2.00
2019-01-17T00:10:50.099Z,2.10
2019-01-17T00:13:49.935Z,2.20
2019-01-17T00:16:54.676Z,2.30
2019-01-17T00:19:53.802Z,2.40
2019-01-17T00:22:42.862Z,2.30
2019-01-17T00:26:08.630Z,2.30
2019-01-17T00:29:16.332Z,2.20
2019-01-17T00:32:05.190Z,2.20
2019-01-17T00:35:02.890Z,2.20
2019-01-17T00:38:03.907Z,2.30
2019-01-17T00:41:13.755Z,2.40
2019-01-17T00:44:28.768Z,2.40
2019-01-17T00:47:16.446Z,2.40
2019-01-17T00:50:24.738Z,2.50
2019-01-17T00:53:52.043Z,2.50
2019-01-17T00:56:52.734Z,2.70
2019-01-17T00:59:53.983Z,2.70
2019-01-17T01:02:50.660Z,2.80
2019-01-17T01:05:47.354Z,2.90
2019-01-17T01:08:43.376Z,2.90
2019-01-17T01:11:41.611Z,2.90
2019-01-17T01:14:35.962Z,2.80
2019-01-17T01:18:00.535Z,2.80
2019-01-17T01:20:54.515Z,2.80
2019-01-17T01:23:56.658Z,2.80
2019-01-17T01:27:04.350Z,2.90
2019-01-17T01:33:36.549Z,2.90
2019-01-17T01:36:36.972Z,3.00
2019-01-17T01:39:31.408Z,3.00
2019-01-17T01:42:42.584Z,2.90
2019-01-17T01:45:42.128Z,2.90
2019-01-17T01:48:54.956Z,2.80
2019-01-17T01:51:49.484Z,2.80
2019-01-17T01:54:22.145Z,2.70
2019-01-17T01:58:10.453Z,2.70
2019-01-17T01:59:50.393Z,2.80
2019-01-17T02:02:43.517Z,2.80
2019-01-17T02:05:18.020Z,2.90
2019-01-17T02:08:10.712Z,2.90
2019-01-17T02:10:40.781Z,2.90
2019-01-17T02:13:38.071Z,2.90
2019-01-17T02:16:24.759Z,3.00
2019-01-17T02:18:54.815Z,3.00
2019-01-17T02:21:25.032Z,3.00
2019-01-17T02:24:19.845Z,3.10
2019-01-17T02:27:14.304Z,3.20
2019-01-17T02:29:52.003Z,3.20
2019-01-17T02:32:42.282Z,3.30
2019-01-17T02:35:15.055Z,3.40
2019-01-17T02:38:14.205Z,3.40
2019-01-17T02:40:39.284Z,3.50
2019-01-17T02:43:10.457Z,3.50
2019-01-17T02:46:15.496Z,3.60
2019-01-17T02:48:30.942Z,3.60
2019-01-17T02:51:00.680Z,3.70
2019-01-17T02:53:31.014Z,3.70
2019-01-17T03:01:55.245Z,3.80
2019-01-17T03:04:28.016Z,3.80
2019-01-17T03:07:21.091Z,3.80
2019-01-17T03:10:02.933Z,3.80
2019-01-17T03:12:48.376Z,3.80
2019-01-17T03:15:39.316Z,3.80
2019-01-17T03:18:08.918Z,3.90
2019-01-17T03:23:39.857Z,3.90
2019-01-17T03:26:31.240Z,3.90
2019-01-17T03:29:03.793Z,3.90
2019-01-17T03:32:04.973Z,3.90
2019-01-17T03:34:48.735Z,3.90
2019-01-17T03:37:18.750Z,3.90
2019-01-17T03:40:20.212Z,3.90
2019-01-17T03:43:13.171Z,3.90
2019-01-17T03:46:17.043Z,4.00
2019-01-17T03:48:52.498Z,4.00
2019-01-17T03:51:27.964Z,4.00
2019-01-17T03:54:01.027Z,4.00
2019-01-17T03:56:52.489Z,3.90
2019-01-17T03:59:36.581Z,3.90
2019-01-17T04:02:10.313Z,3.80
2019-01-17T04:04:48.192Z,3.80
2019-01-17T04:07:31.296Z,3.80
2019-01-17T04:10:01.168Z,3.80
2019-01-17T04:12:58.118Z,3.70
2019-01-17T04:15:32.332Z,3.80
2019-01-17T04:18:23.900Z,3.70
2019-01-17T04:21:17.895Z,3.70
2019-01-17T04:24:15.505Z,3.70
2019-01-17T04:26:48.503Z,3.70
2019-01-17T04:29:42.842Z,3.60
2019-01-17T04:32:14.345Z,3.70
2019-01-17T04:35:05.259Z,3.60
2019-01-17T04:38:03.361Z,3.50
2019-01-17T04:40:30.995Z,3.40
2019-01-17T04:43:02.657Z,3.30
2019-01-17T04:48:29.163Z,3.20
2019-01-17T04:51:22.453Z,3.10
2019-01-17T04:54:27.185Z,3.00
2019-01-17T04:57:01.024Z,2.90
2019-01-17T04:59:58.829Z,2.80
2019-01-17T05:03:01.469Z,2.80
2019-01-17T05:05:47.331Z,2.70
2019-01-17T05:08:16.938Z,2.60
2019-01-17T05:11:05.155Z,2.50
2019-01-17T05:13:32.769Z,2.60
2019-01-17T05:16:40.429Z,2.60
2019-01-17T05:19:39.353Z,2.60
2019-01-17T05:22:32.750Z,2.50
2019-01-17T05:25:30.737Z,2.60
2019-01-17T05:28:02.064Z,2.60
2019-01-17T05:30:49.728Z,2.70
2019-01-17T05:33:30.494Z,2.60
2019-01-17T05:36:30.208Z,2.50
2019-01-17T05:38:55.213Z,2.40
2019-01-17T05:41:44.209Z,2.50
2019-01-17T05:44:47.642Z,2.50
2019-01-17T05:47:59.521Z,2.40
2019-01-17T05:49:48.924Z,2.30
2019-01-17T05:52:39.799Z,2.30
2019-01-17T05:55:19.935Z,2.20
2019-01-17T06:04:12.545Z,2.10
2019-01-17T06:06:49.493Z,2.30
2019-01-17T06:09:38.408Z,2.40
2019-01-17T06:12:50.398Z,2.40
2019-01-17T06:15:17.615Z,2.40
2019-01-17T06:18:12.340Z,2.50
2019-01-17T06:20:37.333Z,2.40
2019-01-17T06:23:07.355Z,2.30
2019-01-17T06:26:07.048Z,2.20
2019-01-17T06:28:42.517Z,2.10
2019-01-17T06:31:31.725Z,2.10
2019-01-17T06:34:01.862Z,2.00
2019-01-17T06:36:31.887Z,1.90
2019-01-17T06:39:14.129Z,2.00
2019-01-17T06:41:45.803Z,2.00
2019-01-17T06:44:20.438Z,2.00
2019-01-17T06:47:12.608Z,1.90
2019-01-17T06:49:43.757Z,1.90
2019-01-17T06:52:16.055Z,1.90
2019-01-17T06:54:45.443Z,2.00
2019-01-17T06:57:15.435Z,2.10
2019-01-17T07:00:38.714Z,2.10
2019-01-17T07:02:24.893Z,1.90
2019-01-17T07:04:59.478Z,2.00
2019-01-17T07:07:31.902Z,2.00
2019-01-17T07:10:20.174Z,2.10
2019-01-17T07:12:50.162Z,2.20
2019-01-17T07:15:20.284Z,2.20
2019-01-17T07:17:57.769Z,2.20
2019-01-17T07:23:12.043Z,2.20
2019-01-17T07:25:58.540Z,2.30
2019-01-17T07:28:38.840Z,2.30
2019-01-17T07:31:15.781Z,2.40
2019-01-17T07:34:14.979Z,2.40
2019-01-17T07:36:44.915Z,2.40
2019-01-17T07:39:35.567Z,2.70
2019-01-17T07:42:14.117Z,2.60
2019-01-17T07:45:07.062Z,2.70
2019-01-17T07:48:02.628Z,2.80
2019-01-17T07:51:27.618Z,2.80
2019-01-17T07:53:31.018Z,2.80
2019-01-17T07:56:02.748Z,2.70
2019-01-17T07:58:35.059Z,2.80
2019-01-17T08:01:29.726Z,2.80
2019-01-17T08:04:28.706Z,2.80
2019-01-17T08:06:56.694Z,2.80
2019-01-17T08:09:24.972Z,2.80
2019-01-17T08:12:14.061Z,2.90
2019-01-17T08:14:50.218Z,2.90
2019-01-17T08:17:44.405Z,2.90
2019-01-17T08:20:22.231Z,3.00
2019-01-17T08:23:05.712Z,3.00
2019-01-17T08:25:42.645Z,2.90
2019-01-17T08:28:53.145Z,2.90
2019-01-17T08:31:27.231Z,2.70
2019-01-17T08:33:59.732Z,2.40
2019-01-17T08:37:46.382Z,2.20
2019-01-17T08:40:02.340Z,2.20
2019-01-17T08:45:09.376Z,2.00
2019-01-17T08:50:47.121Z,1.90
2019-01-17T08:53:57.419Z,1.80
2019-01-17T08:56:35.183Z,1.60
2019-01-17T08:59:51.886Z,1.50
2019-01-17T09:02:20.686Z,1.40
2019-01-17T09:05:01.278Z,1.30
2019-01-17T09:07:33.724Z,1.30
2019-01-17T09:11:22.570Z,1.20
2019-01-17T09:13:59.739Z,1.20
2019-01-17T09:16:00.029Z,1.10
2019-01-17T09:18:38.668Z,1.10
2019-01-17T09:21:25.159Z,1.00
2019-01-17T09:23:50.904Z,0.90
2019-01-17T09:26:30.976Z,1.00
2019-01-17T09:29:32.227Z,1.00
2019-01-17T09:32:06.501Z,1.00
2019-01-17T09:38:18.730Z,1.00
2019-01-17T09:40:53.241Z,1.00
2019-01-17T09:43:27.908Z,1.00
2019-01-17T09:46:04.285Z,1.10
2019-01-17T09:48:38.986Z,1.00
2019-01-17T09:51:42.777Z,1.20
2019-01-17T09:54:22.428Z,1.30
2019-01-17T10:00:58.254Z,1.50
2019-01-17T10:03:53.063Z,1.50
2019-01-17T10:06:29.277Z,1.60
2019-01-17T10:09:00.935Z,1.90
2019-01-17T10:12:48.278Z,2.10
2019-01-17T10:15:26.552Z,2.10
2019-01-17T10:18:33.977Z,1.70
2019-01-17T10:22:17.607Z,1.70
2019-01-17T10:25:28.611Z,1.70
2019-01-17T10:28:56.393Z,1.70
2019-01-17T10:35:13.605Z,2.00
2019-01-17T10:39:12.007Z,2.20
2019-01-17T10:42:17.790Z,2.10
2019-01-17T10:45:37.453Z,1.90
2019-01-17T10:49:01.597Z,1.90
2019-01-17T10:53:00.742Z,1.90
2019-01-17T10:59:10.277Z,2.00
2019-01-17T11:02:37.446Z,2.00
2019-01-17T11:05:59.465Z,1.90
2019-01-17T11:10:08.437Z,2.10
2019-01-17T11:12:03.556Z,2.00
2019-01-17T11:19:08.601Z,2.10
2019-01-17T11:22:14.255Z,2.20
2019-01-17T11:26:02.139Z,2.10
2019-01-17T11:29:27.196Z,2.20
2019-01-17T11:32:41.808Z,2.40
2019-01-17T11:35:56.935Z,2.40
2019-01-17T11:39:03.487Z,2.60
2019-01-17T11:41:54.458Z,2.50
2019-01-17T11:45:16.685Z,2.50
2019-01-17T11:48:31.926Z,2.50
2019-01-17T11:51:41.663Z,2.50
2019-01-17T11:54:53.808Z,2.60
2019-01-17T11:57:59.509Z,2.70
2019-01-17T12:01:06.047Z,2.60
2019-01-17T12:04:20.888Z,2.80
2019-01-17T12:07:37.087Z,2.80
2019-01-17T12:10:15.076Z,2.80
2019-01-17T12:12:40.936Z,2.90
2019-01-17T12:18:21.972Z,3.00
2019-01-17T12:20:57.593Z,2.90
2019-01-17T12:23:30.813Z,2.80
2019-01-17T12:26:08.413Z,2.80
2019-01-17T12:28:48.603Z,2.90
2019-01-17T12:31:20.020Z,2.90
2019-01-17T12:33:49.967Z,3.30
2019-01-17T12:36:25.941Z,3.70
2019-01-17T12:38:56.015Z,4.50
2019-01-17T12:41:45.894Z,3.80
2019-01-17T12:44:20.585Z,3.40
2019-01-17T12:47:06.717Z,3.20
2019-01-17T12:49:43.726Z,3.20
2019-01-17T12:52:14.640Z,3.20
2019-01-17T12:54:48.814Z,3.20
2019-01-17T12:57:20.407Z,3.20
2019-01-17T12:59:50.558Z,3.20
2019-01-17T13:02:23.108Z,3.10
2019-01-17T13:05:09.226Z,3.40
2019-01-17T13:11:00.991Z,3.40
2019-01-17T13:13:43.384Z,3.30
2019-01-17T13:16:19.437Z,3.40
2019-01-17T13:18:54.480Z,3.40
2019-01-17T13:21:25.629Z,3.50
2019-01-17T13:24:02.997Z,3.70
2019-01-17T13:27:04.501Z,4.20
2019-01-17T13:30:11.879Z,4.00
2019-01-17T13:32:48.879Z,3.70
2019-01-17T13:35:23.585Z,3.60
2019-01-17T13:38:37.552Z,3.70
2019-01-17T13:41:32.748Z,3.60
2019-01-17T13:44:11.222Z,3.50
2019-01-17T13:46:45.248Z,3.60
2019-01-17T13:49:44.113Z,3.60
2019-01-17T13:52:17.146Z,3.60
2019-01-17T13:55:01.329Z,3.50
2019-01-17T13:57:56.242Z,3.60
2019-01-17T14:00:39.392Z,3.60
2019-01-17T14:03:54.157Z,3.50
2019-01-17T14:06:32.983Z,3.70
2019-01-17T14:09:40.377Z,3.70
2019-01-17T14:12:16.369Z,3.60
2019-01-17T14:14:21.505Z,3.60
2019-01-17T14:16:58.589Z,3.60
2019-01-17T14:19:28.880Z,3.70
2019-01-17T14:22:05.698Z,3.70
2019-01-17T14:24:42.925Z,3.60
2019-01-17T14:27:15.557Z,3.70
2019-01-17T14:29:48.158Z,3.60
2019-01-17T14:32:18.461Z,3.70
2019-01-17T14:35:01.587Z,3.80
2019-01-17T14:38:08.631Z,3.80
2019-01-17T14:46:39.842Z,3.80
2019-01-17T14:49:21.723Z,3.60
2019-01-17T14:52:20.944Z,3.80
2019-01-17T14:54:55.580Z,3.80
2019-01-17T14:57:34.755Z,3.70
2019-01-17T15:00:33.926Z,3.60
2019-01-17T15:03:16.640Z,3.70
2019-01-17T15:05:17.900Z,3.50
2019-01-17T15:08:27.168Z,3.60
2019-01-17T15:11:26.935Z,3.60
2019-01-17T15:14:00.693Z,3.60
2019-01-17T15:17:10.745Z,3.60
2019-01-17T15:19:40.204Z,3.60
2019-01-17T15:27:58.134Z,3.40
2019-01-17T15:30:36.595Z,3.40
2019-01-17T15:33:09.631Z,3.40
2019-01-17T15:36:30.954Z,3.40
2019-01-17T15:38:59.275Z,3.40
2019-01-17T15:42:12.138Z,3.30
2019-01-17T15:44:45.281Z,3.30
2019-01-17T15:47:22.889Z,3.30
2019-01-17T15:49:55.751Z,3.30
2019-01-17T15:52:37.545Z,3.30
2019-01-17T15:55:08.231Z,3.40
2019-01-17T15:57:39.471Z,3.30
2019-01-17T16:00:58.265Z,3.20
2019-01-17T16:03:36.814Z,3.00
2019-01-17T16:06:11.716Z,2.90
2019-01-17T16:08:56.827Z,2.80
2019-01-17T16:11:28.390Z,2.70
2019-01-17T16:14:10.092Z,2.80
2019-01-17T16:16:37.157Z,2.70
2019-01-17T16:22:17.245Z,2.70
2019-01-17T16:25:05.994Z,2.40
2019-01-17T16:30:55.055Z,2.30
2019-01-17T16:33:39.253Z,2.00
2019-01-17T16:36:09.339Z,2.10
2019-01-17T16:39:17.347Z,1.60
2019-01-17T16:51:09.960Z,1.00
2019-01-17T16:53:23.193Z,0.90
2019-01-17T16:56:12.228Z,0.80
2019-01-17T16:58:48.017Z,0.60
2019-01-17T17:01:50.588Z,0.60
2019-01-17T17:04:34.284Z,0.40
2019-01-17T17:07:04.443Z,0.30
2019-01-17T17:09:41.734Z,0.10
2019-01-17T17:12:14.408Z,0.00
2019-01-17T17:15:02.421Z,0.00
2019-01-17T17:17:32.356Z,-0.20
2019-01-17T17:20:02.385Z,-0.20
2019-01-17T17:22:42.149Z,-0.30
2019-01-17T17:25:27.205Z,-0.40
2019-01-17T17:28:02.191Z,-0.40
2019-01-17T17:30:33.911Z,-0.30
2019-01-17T17:33:06.152Z,-0.30
2019-01-17T17:35:45.362Z,-0.20
2019-01-17T17:40:54.675Z,-0.40
2019-01-17T17:43:26.242Z,-0.60
2019-01-17T17:46:01.033Z,-0.60
2019-01-17T17:48:31.257Z,-0.60
2019-01-17T17:51:01.257Z,-0.60
2019-01-17T17:53:32.745Z,-0.40
2019-01-17T17:56:08.602Z,-0.60
2019-01-17T17:58:39.924Z,-0.70
2019-01-17T18:01:47.518Z,-0.80
2019-01-17T18:04:26.722Z,-0.90
2019-01-17T18:07:02.868Z,-0.80
2019-01-17T18:09:43.207Z,-0.90
2019-01-17T18:12:14.728Z,-1.00
2019-01-17T18:15:29.936Z,-1.10
2019-01-17T18:18:06.916Z,-1.20
2019-01-17T18:20:46.087Z,-1.30
2019-01-17T18:23:21.356Z,-1.20
2019-01-17T18:26:28.352Z,-1.30
2019-01-17T18:29:13.406Z,-1.30
2019-01-17T18:31:48.020Z,-1.30
2019-01-17T18:34:22.870Z,-1.30
2019-01-17T18:37:04.981Z,-1.40
2019-01-17T18:39:40.632Z,-1.50
2019-01-17T18:42:17.501Z,-1.60
2019-01-17T18:44:51.540Z,-1.40
2019-01-17T18:47:29.017Z,-1.50
2019-01-17T18:50:18.508Z,-1.60
2019-01-17T18:52:48.483Z,-1.70
2019-01-17T18:58:30.009Z,-1.70
2019-01-17T19:01:17.963Z,-1.80
2019-01-17T19:12:59.093Z,-1.70
2019-01-17T19:16:00.362Z,-1.90
2019-01-17T19:18:48.638Z,-2.00
2019-01-17T19:21:26.266Z,-2.00
2019-01-17T19:24:02.039Z,-2.00
2019-01-17T19:29:18.514Z,-2.00
2019-01-17T19:32:11.238Z,-2.00
2019-01-17T19:36:34.190Z,-2.00
2019-01-17T19:37:18.080Z,-2.00
2019-01-17T19:39:53.423Z,-1.90
2019-01-17T19:42:37.786Z,-1.90
2019-01-17T19:45:11.761Z,-1.90
2019-01-17T19:47:52.580Z,-1.90
2019-01-17T19:53:36.334Z,-1.90
2019-01-17T19:56:05.661Z,-1.90
2019-01-17T19:58:46.288Z,-1.90
2019-01-17T20:07:08.984Z,-2.00
2019-01-17T20:09:55.008Z,-2.00
2019-01-17T20:12:34.142Z,-1.90
2019-01-17T20:15:25.960Z,-1.80
2019-01-17T20:18:14.318Z,-1.80
2019-01-17T20:20:44.207Z,-1.80
2019-01-17T20:23:27.843Z,-1.90
2019-01-17T20:25:58.244Z,-1.90
2019-01-17T20:28:53.290Z,-1.90
2019-01-17T20:31:37.410Z,-2.00
2019-01-17T20:34:19.408Z,-1.90
2019-01-17T20:39:58.035Z,-2.00
2019-01-17T20:45:22.611Z,-2.00
2019-01-17T20:48:28.131Z,-2.00
2019-01-17T20:51:17.808Z,-1.90
2019-01-17T20:56:48.384Z,-1.90
2019-01-17T20:59:18.378Z,-1.80
2019-01-17T21:02:23.107Z,-1.80
2019-01-17T21:05:20.151Z,-1.90
2019-01-17T21:07:50.878Z,-1.90
2019-01-17T21:10:21.169Z,-1.90
2019-01-17T21:13:53.693Z,-1.90
2019-01-17T21:16:18.189Z,-1.90
2019-01-17T21:18:48.736Z,-1.80
2019-01-17T21:21:39.638Z,-1.70
2019-01-17T21:24:14.736Z,-1.60
2019-01-17T21:27:05.079Z,-1.70
2019-01-17T21:30:11.752Z,-1.70
2019-01-17T21:32:43.465Z,-1.70
2019-01-17T21:35:22.094Z,-1.80
2019-01-17T21:38:08.902Z,-1.80
2019-01-17T21:40:43.263Z,-1.80
2019-01-17T21:44:00.282Z,-1.90
2019-01-17T21:46:07.529Z,-1.80
2019-01-17T21:49:20.032Z,-1.90
2019-01-17T21:51:42.992Z,-1.90
2019-01-17T21:54:17.348Z,-2.00
2019-01-17T21:56:53.163Z,-1.80
2019-01-17T21:59:23.919Z,-1.90
2019-01-17T22:01:55.559Z,-1.90
2019-01-17T22:04:28.437Z,-1.90
2019-01-17T22:07:18.353Z,-1.90
2019-01-17T22:09:42.201Z,-2.00
2019-01-17T22:12:38.317Z,-2.10
2019-01-17T22:15:21.051Z,-2.10
2019-01-17T22:18:20.870Z,-2.20
2019-01-17T22:20:56.830Z,-2.10
2019-01-17T22:23:31.150Z,-2.20
2019-01-17T22:26:04.365Z,-2.20
2019-01-17T22:31:27.006Z,-2.20
2019-01-17T22:33:57.310Z,-2.10
2019-01-17T22:36:56.779Z,-2.20
2019-01-17T22:39:26.989Z,-2.20
2019-01-17T22:42:09.410Z,-2.20
2019-01-17T22:47:28.305Z,-2.00
2019-01-17T22:50:08.179Z,-1.90
2019-01-17T22:53:40.648Z,-1.70
2019-01-17T22:55:33.231Z,-1.70
2019-01-17T22:58:03.391Z,-1.90
2019-01-17T23:01:05.393Z,-2.00
2019-01-17T23:04:15.599Z,-2.10
2019-01-17T23:06:42.283Z,-2.10
2019-01-17T23:09:15.158Z,-2.20
2019-01-17T23:12:06.712Z,-2.10
2019-01-17T23:14:41.838Z,-2.10
2019-01-17T23:17:11.777Z,-2.20
2019-01-17T23:19:44.017Z,-2.20
2019-01-17T23:22:15.282Z,-2.20
2019-01-17T23:25:16.874Z,-2.30
2019-01-17T23:27:57.055Z,-2.30
2019-01-17T23:30:30.264Z,-2.20
2019-01-17T23:33:06.427Z,-2.10
2019-01-17T23:35:56.232Z,-2.20
2019-01-17T23:38:28.988Z,-2.30
2019-01-17T23:44:03.159Z,-2.30
2019-01-17T23:46:59.416Z,-2.40
2019-01-17T23:49:48.365Z,-2.30
2019-01-17T23:52:29.122Z,-2.30
2019-01-17T23:54:59.028Z,-2.40
2019-01-17T23:57:36.821Z,-2.40
